Time;durP1;ratioP1;P1;durP2;ratioP2;P2;SDS_P1;SDS_P2;PMS_P1;PMS_P2;Temp;Humidity;BMP_temperature;BMP_pressure;BME280_temperature;BME280_humidity;BME280_pressure;Samples;Min_cycle;Max_cycle;Signal;HPM_P1;HPM_P2
2024/01/19 00:00:45;;;;;;;13.05;6.55;;;384.20;2329.60;;;;;;5081428;28;20020;-75
2024/01/19 00:03:11;;;;;;;13.05;8.75;;;384.20;2329.60;;;;;;5080940;28;20160;-71
2024/01/19 00:05:37;;;;;;;32.45;24.15;;;384.20;2329.60;;;;;;5079912;28;20478;-68
2024/01/19 00:08:03;;;;;;;14.82;9.40;;;384.20;2329.60;;;;;;5080501;28;20028;-70
2024/01/19 00:10:30;;;;;;;54.05;35.40;;;384.20;2329.60;;;;;;5079965;28;20013;-77
2024/01/19 00:12:56;;;;;;;44.20;29.52;;;384.20;2329.60;;;;;;5080522;28;20031;-77
2024/01/19 00:15:22;;;;;;;32.05;20.83;;;384.20;2329.60;;;;;;5078487;28;20021;-76
2024/01/19 00:17:48;;;;;;;47.15;34.95;;;384.20;2329.60;;;;;;5080184;28;20024;-77
2024/01/19 00:20:13;;;;;;;53.28;47.33;;;384.20;2329.60;;;;;;5077819;28;20017;-78
2024/01/19 00:22:39;;;;;;;23.75;17.02;;;384.30;2329.60;;;;;;5079952;28;20473;-79
2024/01/19 00:25:05;;;;;;;22.02;15.68;;;384.20;2329.60;;;;;;5077901;28;20025;-77
2024/01/19 00:27:31;;;;;;;12.40;6.60;;;384.40;2329.60;;;;;;5091200;28;20032;-71
2024/01/19 00:29:57;;;;;;;11.60;5.95;;;384.20;2329.60;;;;;;5078747;28;20108;-76
2024/01/19 00:32:23;;;;;;;13.43;5.95;;;384.10;2329.60;;;;;;5090439;28;20077;-78
2024/01/19 00:34:49;;;;;;;19.10;8.48;;;384.10;2329.60;;;;;;5091473;28;20086;-76
2024/01/19 00:37:15;;;;;;;23.67;13.02;;;384.10;2329.60;;;;;;5090234;28;20620;-78
2024/01/19 00:39:41;;;;;;;18.35;10.35;;;384.10;2329.60;;;;;;5089048;28;20036;-76
2024/01/19 00:42:06;;;;;;;26.40;14.07;;;384.10;2329.60;;;;;;5089912;28;20024;-77
2024/01/19 00:44:33;;;;;;;15.75;9.95;;;384.10;2329.60;;;;;;5088968;28;20020;-78
2024/01/19 00:46:59;;;;;;;20.70;15.20;;;384.20;2329.60;;;;;;5089283;28;20055;-79
2024/01/19 00:49:25;;;;;;;21.15;15.18;;;384.20;2329.60;;;;;;5088295;28;20594;-75
2024/01/19 00:51:51;;;;;;;16.88;9.40;;;384.20;2329.60;;;;;;5090585;28;20024;-78
2024/01/19 00:54:17;;;;;;;19.00;9.35;;;384.20;2329.60;;;;;;5075925;28;20056;-77
2024/01/19 00:56:43;;;;;;;13.32;8.68;;;384.10;2329.60;;;;;;5084562;28;20103;-74
2024/01/19 00:59:08;;;;;;;13.05;8.88;;;384.20;2329.60;;;;;;5074556;28;20089;-72
2024/01/19 01:01:35;;;;;;;13.85;7.25;;;384.10;2329.60;;;;;;5084581;28;20021;-72
2024/01/19 01:04:02;;;;;;;18.23;12.93;;;384.10;2329.60;;;;;;5075111;28;20052;-69
2024/01/19 01:06:28;;;;;;;31.85;15.77;;;384.20;2329.60;;;;;;5078005;28;20028;-75
2024/01/19 01:08:54;;;;;;;17.80;11.90;;;384.20;2329.60;;;;;;5078912;28;20024;-78
2024/01/19 01:11:20;;;;;;;21.33;13.02;;;384.10;2329.60;;;;;;5090789;28;20027;-76
2024/01/19 01:13:47;;;;;;;17.45;12.15;;;384.10;2329.60;;;;;;5091273;28;20102;-76
2024/01/19 01:16:13;;;;;;;30.38;27.83;;;384.10;2329.60;;;;;;5090395;28;20028;-73
2024/01/19 01:18:39;;;;;;;25.10;21.55;;;384.10;2329.60;;;;;;5090740;28;20030;-76
2024/01/19 01:21:06;;;;;;;29.88;25.75;;;384.10;2329.60;;;;;;5090597;28;20032;-75
2024/01/19 01:23:32;;;;;;;29.63;24.98;;;384.20;2329.60;;;;;;5081910;28;20056;-78
2024/01/19 01:25:58;;;;;;;19.02;15.50;;;384.30;2329.60;;;;;;5070609;28;20493;-76
2024/01/19 01:28:23;;;;;;;17.73;14.48;;;384.40;2329.60;;;;;;5083590;28;20028;-75
2024/01/19 01:30:49;;;;;;;11.52;7.20;;;384.40;2329.60;;;;;;5090486;28;20351;-78
2024/01/19 01:33:15;;;;;;;16.08;8.48;;;384.60;2329.60;;;;;;5090029;28;20082;-76
2024/01/19 01:35:41;;;;;;;32.22;20.00;;;384.60;2329.60;;;;;;5070216;28;20482;-75
2024/01/19 01:38:06;;;;;;;33.30;19.70;;;384.40;2329.60;;;;;;5083975;28;20043;-71
2024/01/19 01:40:32;;;;;;;39.60;23.08;;;384.00;2329.60;;;;;;5090028;28;20466;-78
2024/01/19 01:43:01;;;;;;;34.42;23.88;;;359.20;2329.60;;;;;;5090424;28;20020;-78
2024/01/19 01:45:27;;;;;;;47.72;31.90;;;359.20;2329.60;;;;;;5090243;28;20069;-77
2024/01/19 01:47:54;;;;;;;34.33;24.27;;;359.10;2329.60;;;;;;5089881;28;20040;-77
2024/01/19 01:50:20;;;;;;;16.75;11.00;;;359.20;2329.60;;;;;;5090352;28;20988;-78
2024/01/19 01:52:46;;;;;;;19.80;12.25;;;384.00;2329.60;;;;;;5090233;28;20047;-78
2024/01/19 01:55:13;;;;;;;17.92;10.85;;;384.20;2329.60;;;;;;5088770;28;20032;-77
2024/01/19 01:57:43;;;;;;;12.45;6.93;;;384.40;2329.60;;;;;;5074851;28;20394;-75
2024/01/19 02:00:12;;;;;;;11.73;7.18;;;384.50;2329.60;;;;;;5090122;28;20024;-77
2024/01/19 02:02:38;;;;;;;11.73;7.13;;;384.60;2329.60;;;;;;5088860;28;20343;-80
2024/01/19 02:05:05;;;;;;;13.13;7.45;;;384.60;2329.60;;;;;;5089913;28;20052;-77
2024/01/19 02:07:31;;;;;;;14.38;11.80;;;384.60;2329.60;;;;;;5075905;28;20035;-71
2024/01/19 02:09:57;;;;;;;14.07;9.48;;;384.60;2329.60;;;;;;5089838;28;20024;-77
2024/01/19 02:12:23;;;;;;;20.80;13.50;;;384.70;2329.60;;;;;;5089617;28;20024;-77
2024/01/19 02:14:49;;;;;;;17.35;12.38;;;384.70;2329.60;;;;;;5080469;28;20021;-79
2024/01/19 02:17:15;;;;;;;19.55;12.77;;;409.90;2355.20;;;;;;5085050;28;20032;-67
2024/01/19 02:19:41;;;;;;;36.17;23.08;;;384.80;2329.60;;;;;;5089630;28;20046;-75
2024/01/19 02:22:07;;;;;;;38.05;25.10;;;384.90;2329.60;;;;;;5089955;28;20477;-68
2024/01/19 02:24:34;;;;;;;20.08;15.80;;;384.90;2329.60;;;;;;5089470;28;20410;-69
2024/01/19 02:27:01;;;;;;;38.08;25.45;;;384.90;2329.60;;;;;;5073373;28;20029;-76
2024/01/19 02:29:27;;;;;;;13.18;8.27;;;384.90;2329.60;;;;;;5077967;28;20036;-69
2024/01/19 02:31:53;;;;;;;12.50;7.20;;;384.90;2329.60;;;;;;5088993;28;20073;-78
2024/01/19 02:34:18;;;;;;;12.90;5.35;;;384.90;2329.60;;;;;;5089281;28;20102;-79
2024/01/19 02:36:44;;;;;;;13.05;5.00;;;384.90;2329.60;;;;;;5075508;28;20033;-72
2024/01/19 02:39:10;;;;;;;15.85;6.93;;;384.90;2329.60;;;;;;5089152;28;20031;-78
2024/01/19 02:41:36;;;;;;;14.30;6.07;;;384.90;2329.60;;;;;;5089375;28;20119;-78
2024/01/19 02:44:02;;;;;;;10.77;6.15;;;384.70;2329.60;;;;;;5089136;28;20381;-78
2024/01/19 02:46:27;;;;;;;10.43;6.35;;;384.70;2329.60;;;;;;5089287;28;20028;-75
2024/01/19 02:48:53;;;;;;;16.55;12.65;;;384.80;2329.60;;;;;;5088906;28;20086;-79
2024/01/19 02:51:19;;;;;;;52.15;32.35;;;384.70;2329.60;;;;;;5073949;28;20480;-79
2024/01/19 02:53:45;;;;;;;63.85;49.55;;;384.70;2329.60;;;;;;5081898;28;20027;-78
2024/01/19 02:56:10;;;;;;;21.75;15.25;;;384.90;2329.60;;;;;;5089173;28;20047;-79
2024/01/19 02:58:36;;;;;;;10.85;7.95;;;384.80;2329.60;;;;;;5076114;28;20051;-78
2024/01/19 03:01:02;;;;;;;8.40;5.65;;;384.70;2329.60;;;;;;5088271;28;20367;-77
2024/01/19 03:03:28;;;;;;;47.58;30.98;;;384.80;2329.60;;;;;;5088868;28;20597;-78
2024/01/19 03:05:54;;;;;;;20.90;14.95;;;384.80;2329.60;;;;;;5088778;28;20024;-78
2024/01/19 03:08:22;;;;;;;9.63;3.80;;;384.80;2329.60;;;;;;5088979;28;20382;-78
2024/01/19 03:10:48;;;;;;;6.30;3.53;;;384.80;2329.60;;;;;;5089030;28;20111;-78
2024/01/19 03:13:14;;;;;;;10.15;4.38;;;384.90;2329.60;;;;;;5088636;28;20071;-79
2024/01/19 03:15:40;;;;;;;12.65;8.93;;;384.70;2329.60;;;;;;5077673;28;20103;-79
2024/01/19 03:18:05;;;;;;;9.65;5.50;;;384.70;2329.60;;;;;;5092835;28;20032;-77
2024/01/19 03:20:31;;;;;;;12.40;3.70;;;384.70;2329.60;;;;;;5092842;28;20020;-76
2024/01/19 03:22:57;;;;;;;8.20;5.25;;;384.70;2329.60;;;;;;5092830;28;20055;-78
2024/01/19 03:25:23;;;;;;;13.00;5.22;;;384.70;2329.60;;;;;;5072442;28;20051;-77
2024/01/19 03:27:48;;;;;;;9.27;5.07;;;384.80;2329.60;;;;;;5081041;28;20032;-79
2024/01/19 03:30:16;;;;;;;14.80;5.57;;;384.80;2329.60;;;;;;5092756;28;20031;-78
2024/01/19 03:32:42;;;;;;;8.40;4.35;;;384.80;2329.60;;;;;;5092382;28;20056;-76
2024/01/19 03:35:08;;;;;;;11.35;4.60;;;384.70;2329.60;;;;;;5077803;28;20048;-78
2024/01/19 03:37:34;;;;;;;7.50;4.22;;;384.70;2329.60;;;;;;5072599;28;20037;-77
2024/01/19 03:39:59;;;;;;;9.85;4.05;;;384.70;2329.60;;;;;;5087455;28;20111;-78
2024/01/19 03:42:26;;;;;;;6.18;3.28;;;384.60;2329.60;;;;;;5092422;28;20180;-79
2024/01/19 03:44:52;;;;;;;6.13;3.78;;;384.60;2329.60;;;;;;5078692;28;20463;-76
2024/01/19 03:47:18;;;;;;;9.02;4.30;;;384.50;2329.60;;;;;;5092283;28;20050;-77
2024/01/19 03:49:43;;;;;;;9.88;5.28;;;384.40;2329.60;;;;;;5092084;28;20115;-78
2024/01/19 03:52:10;;;;;;;7.72;3.53;;;384.40;2329.60;;;;;;5092509;28;20062;-78
2024/01/19 03:54:36;;;;;;;8.40;3.50;;;384.40;2329.60;;;;;;5092213;28;20056;-77
2024/01/19 03:57:04;;;;;;;6.93;3.10;;;384.40;2329.60;;;;;;5092262;28;20467;-74
2024/01/19 03:59:30;;;;;;;10.02;3.08;;;384.40;2329.60;;;;;;5092173;28;20024;-71
2024/01/19 04:01:56;;;;;;;6.05;2.80;;;384.50;2329.60;;;;;;5084263;28;20025;-80
2024/01/19 04:04:23;;;;;;;10.13;2.75;;;384.60;2329.60;;;;;;5086022;28;20512;-79
2024/01/19 04:06:49;;;;;;;4.50;2.35;;;384.60;2329.60;;;;;;5092053;28;20458;-78
2024/01/19 04:09:16;;;;;;;4.75;2.50;;;384.60;2329.60;;;;;;5090631;28;20053;-77
2024/01/19 04:11:43;;;;;;;7.43;2.60;;;384.70;2329.60;;;;;;5079852;28;20016;-74
2024/01/19 04:14:09;;;;;;;5.15;2.25;;;384.90;2329.60;;;;;;5091904;28;20020;-78
2024/01/19 04:16:35;;;;;;;6.63;2.45;;;384.90;2329.60;;;;;;5091933;28;20103;-79
2024/01/19 04:19:02;;;;;;;5.70;2.45;;;409.60;2355.20;;;;;;5076320;28;20056;-70
2024/01/19 04:21:29;;;;;;;6.32;2.65;;;384.90;2329.60;;;;;;5080554;28;20033;-78
2024/01/19 04:23:56;;;;;;;5.97;2.30;;;409.60;2355.20;;;;;;5089475;28;20485;-73
2024/01/19 04:26:22;;;;;;;4.47;1.80;;;409.60;2355.20;;;;;;5070934;28;20031;-75
2024/01/19 04:28:47;;;;;;;8.77;2.50;;;409.60;2355.20;;;;;;5071420;28;20036;-77
2024/01/19 04:31:13;;;;;;;7.47;2.13;;;384.90;2329.60;;;;;;5081184;28;20017;-77
2024/01/19 04:33:39;;;;;;;7.55;2.63;;;409.60;2355.20;;;;;;5077471;28;20039;-78
2024/01/19 04:36:05;;;;;;;4.47;2.20;;;409.60;2355.20;;;;;;5091645;28;20132;-77
2024/01/19 04:38:31;;;;;;;5.75;2.72;;;409.60;2355.20;;;;;;5091337;28;20027;-73
2024/01/19 04:40:57;;;;;;;5.43;3.00;;;384.90;2329.60;;;;;;5091574;28;20025;-77
2024/01/19 04:43:23;;;;;;;9.88;3.17;;;384.90;2329.60;;;;;;5091031;28;20080;-77
2024/01/19 04:45:49;;;;;;;5.28;2.88;;;384.90;2329.60;;;;;;5081791;28;20027;-77
2024/01/19 04:48:15;;;;;;;4.63;2.20;;;384.90;2329.60;;;;;;5087038;28;20028;-78
2024/01/19 04:50:41;;;;;;;4.65;2.00;;;384.90;2329.60;;;;;;5091352;28;20107;-79
2024/01/19 04:53:06;;;;;;;4.22;2.30;;;384.80;2329.60;;;;;;5088155;28;20086;-77
2024/01/19 04:55:32;;;;;;;9.82;3.25;;;384.90;2329.60;;;;;;5070901;28;20021;-77
2024/01/19 04:57:58;;;;;;;5.88;2.10;;;384.90;2329.60;;;;;;5074174;28;20039;-74
2024/01/19 05:00:24;;;;;;;9.63;5.40;;;384.90;2329.60;;;;;;5091139;28;20031;-75
2024/01/19 05:02:50;;;;;;;4.30;2.10;;;384.90;2329.60;;;;;;5090567;28;20097;-76
2024/01/19 05:05:16;;;;;;;5.90;3.15;;;384.80;2329.60;;;;;;5081389;28;20024;-76
2024/01/19 05:07:42;;;;;;;4.63;3.15;;;384.80;2329.60;;;;;;5073687;28;20482;-75
2024/01/19 05:10:08;;;;;;;6.53;3.25;;;384.90;2329.60;;;;;;5090956;28;20077;-76
2024/01/19 05:12:34;;;;;;;12.52;6.90;;;384.90;2329.60;;;;;;5087763;28;20016;-75
2024/01/19 05:15:00;;;;;;;7.00;3.60;;;384.80;2329.60;;;;;;5069452;28;20047;-76
2024/01/19 05:17:26;;;;;;;11.23;6.05;;;384.80;2329.60;;;;;;5084266;28;20494;-74
2024/01/19 05:19:52;;;;;;;9.25;4.68;;;384.70;2329.60;;;;;;5080326;28;20450;-77
2024/01/19 05:22:18;;;;;;;13.30;8.00;;;384.80;2329.60;;;;;;5074325;28;20021;-75
2024/01/19 05:24:44;;;;;;;24.65;15.73;;;384.70;2329.60;;;;;;5070334;28;20032;-74
2024/01/19 05:27:10;;;;;;;18.42;12.60;;;384.80;2329.60;;;;;;5073268;28;20031;-74
2024/01/19 05:29:36;;;;;;;78.03;36.20;;;384.80;2329.60;;;;;;5090789;28;20162;-75
2024/01/19 05:32:02;;;;;;;66.70;45.63;;;384.70;2329.60;;;;;;5073576;28;20100;-77
2024/01/19 05:34:29;;;;;;;46.30;29.48;;;384.30;2329.60;;;;;;5080044;28;20024;-74
2024/01/19 05:36:55;;;;;;;31.90;23.60;;;359.30;2329.60;;;;;;5076651;28;20047;-69
2024/01/19 05:39:20;;;;;;;32.13;21.13;;;359.10;2329.60;;;;;;5089823;28;20028;-77
2024/01/19 05:41:46;;;;;;;19.60;11.93;;;359.10;2329.60;;;;;;5090708;28;20484;-75
2024/01/19 05:44:12;;;;;;;25.80;14.02;;;358.90;2329.60;;;;;;5090252;28;20028;-78
2024/01/19 05:46:38;;;;;;;231.82;177.40;;;358.80;2329.60;;;;;;5090256;28;20024;-79
2024/01/19 05:49:04;;;;;;;147.23;105.15;;;358.70;2329.60;;;;;;5090019;28;20266;-70
2024/01/19 05:51:31;;;;;;;56.38;47.80;;;358.50;2329.60;;;;;;5090332;28;20516;-78
2024/01/19 05:53:58;;;;;;;47.70;34.63;;;358.50;2329.60;;;;;;5090281;28;20028;-78
2024/01/19 05:56:24;;;;;;;29.52;20.15;;;358.50;2329.60;;;;;;5089803;28;20061;-77
2024/01/19 05:58:50;;;;;;;21.40;15.65;;;358.40;2329.60;;;;;;5090369;28;20436;-78
2024/01/19 06:01:16;;;;;;;16.67;14.32;;;333.70;2329.60;;;;;;5085530;28;20486;-76
2024/01/19 06:03:41;;;;;;;18.98;15.00;;;333.50;2329.60;;;;;;5069019;28;20040;-77
2024/01/19 06:06:07;;;;;;;33.15;29.70;;;333.50;2329.60;;;;;;5072747;28;20438;-77
2024/01/19 06:08:33;;;;;;;23.45;18.95;;;333.50;2329.60;;;;;;5089628;28;20024;-75
2024/01/19 06:10:59;;;;;;;144.02;129.02;;;333.50;2329.60;;;;;;5085697;28;20021;-68
2024/01/19 06:13:24;;;;;;;44.45;39.20;;;333.40;2329.60;;;;;;5080443;28;20127;-77
2024/01/19 06:15:50;;;;;;;16.35;12.05;;;333.40;2329.60;;;;;;5083965;28;20024;-75
2024/01/19 06:18:16;;;;;;;10.25;7.85;;;333.40;2329.60;;;;;;5069346;28;20027;-69
2024/01/19 06:20:42;;;;;;;15.85;7.05;;;333.30;2329.60;;;;;;5082786;28;20024;-76
2024/01/19 06:23:09;;;;;;;22.20;20.10;;;333.30;2329.60;;;;;;5071167;28;20064;-76
2024/01/19 06:25:36;;;;;;;35.05;30.50;;;333.40;2329.60;;;;;;5086924;28;20498;-78
2024/01/19 06:28:02;;;;;;;24.10;21.73;;;333.40;2329.60;;;;;;5089398;28;20040;-76
2024/01/19 06:30:28;;;;;;;21.35;15.50;;;333.40;2329.60;;;;;;5089924;28;20366;-74
2024/01/19 06:32:54;;;;;;;20.15;16.90;;;333.40;2329.60;;;;;;5089244;28;20027;-74
2024/01/19 06:35:20;;;;;;;23.65;17.65;;;333.20;2329.60;;;;;;5089231;28;20016;-77
2024/01/19 06:37:46;;;;;;;96.95;85.80;;;333.20;2329.60;;;;;;5089268;28;20103;-69
2024/01/19 06:40:14;;;;;;;73.70;55.28;;;333.10;2329.60;;;;;;5089211;28;20054;-76
2024/01/19 06:42:40;;;;;;;151.68;130.23;;;333.10;2329.60;;;;;;5089262;28;20023;-76
2024/01/19 06:45:06;;;;;;;30.55;26.60;;;333.10;2329.60;;;;;;5089130;28;20020;-75
2024/01/19 06:47:32;;;;;;;39.65;35.17;;;333.10;2329.60;;;;;;5089459;28;20133;-73
2024/01/19 06:49:58;;;;;;;15.82;14.07;;;333.00;2329.60;;;;;;5089002;28;20479;-76
2024/01/19 06:52:24;;;;;;;56.20;51.25;;;333.10;2329.60;;;;;;5089141;28;20111;-69
2024/01/19 06:54:50;;;;;;;83.50;75.43;;;333.00;2329.60;;;;;;5075478;28;20028;-77
2024/01/19 06:57:16;;;;;;;33.13;29.60;;;332.90;2329.60;;;;;;5089096;28;20032;-73
2024/01/19 06:59:41;;;;;;;19.20;14.95;;;333.00;2329.60;;;;;;5088698;28;20016;-76
2024/01/19 07:02:08;;;;;;;18.00;14.32;;;333.00;2329.60;;;;;;5089023;28;20107;-76
2024/01/19 07:04:33;;;;;;;21.55;14.70;;;332.90;2329.60;;;;;;5088378;28;20036;-72
2024/01/19 07:06:59;;;;;;;21.08;16.13;;;332.90;2329.60;;;;;;5089466;28;20020;-77
2024/01/19 07:09:29;;;;;;;24.02;16.20;;;332.80;2329.60;;;;;;5089023;28;20351;-74
2024/01/19 07:11:55;;;;;;;43.53;32.92;;;332.90;2329.60;;;;;;5077518;28;20020;-80
2024/01/19 07:14:21;;;;;;;38.58;34.47;;;332.90;2329.60;;;;;;5082393;28;20095;-80
2024/01/19 07:16:47;;;;;;;40.78;36.88;;;332.90;2329.60;;;;;;5076752;28;20020;-74
2024/01/19 07:19:12;;;;;;;32.00;25.38;;;332.80;2329.60;;;;;;5085225;28;20501;-75
2024/01/19 07:21:42;;;;;;;56.10;50.75;;;332.80;2329.60;;;;;;5087550;28;20028;-79
2024/01/19 07:24:10;;;;;;;63.58;57.83;;;308.10;2304.00;;;;;;5085423;28;20064;-73
2024/01/19 07:26:36;;;;;;;53.67;38.35;;;308.10;2304.00;;;;;;5088578;28;20028;-70
2024/01/19 07:29:06;;;;;;;36.35;28.88;;;308.00;2304.00;;;;;;5088417;28;20540;-78
2024/01/19 07:31:32;;;;;;;35.58;27.15;;;307.80;2304.00;;;;;;5088893;28;20032;-73
2024/01/19 07:33:58;;;;;;;67.07;48.63;;;307.60;2304.00;;;;;;5088682;28;20120;-78
2024/01/19 07:36:23;;;;;;;49.58;36.42;;;307.40;2304.00;;;;;;5088694;28;20434;-77
2024/01/19 07:38:49;;;;;;;74.32;57.65;;;307.30;2304.00;;;;;;5088630;28;20492;-74
2024/01/19 07:41:15;;;;;;;77.50;68.25;;;307.30;2304.00;;;;;;5076337;28;20104;-70
2024/01/19 07:43:41;;;;;;;60.88;54.80;;;307.20;2304.00;;;;;;5077663;28;20087;-76
2024/01/19 07:46:06;;;;;;;43.17;34.97;;;307.20;2304.00;;;;;;5066551;28;20497;-79
2024/01/19 07:48:32;;;;;;;52.17;38.70;;;307.20;2304.00;;;;;;5069645;28;20467;-78
2024/01/19 07:50:58;;;;;;;31.23;24.02;;;282.50;2278.40;;;;;;5068505;28;20052;-79
2024/01/19 07:53:24;;;;;;;39.75;31.10;;;282.50;2278.40;;;;;;5084288;28;20501;-78
2024/01/19 07:55:49;;;;;;;51.22;37.00;;;282.40;2278.40;;;;;;5088496;28;20047;-79
2024/01/19 07:58:16;;;;;;;45.42;30.08;;;282.30;2278.40;;;;;;5078995;28;20439;-79
2024/01/19 08:00:41;;;;;;;27.88;21.85;;;282.30;2278.40;;;;;;5068672;28;20588;-78
2024/01/19 08:03:08;;;;;;;20.67;15.60;;;282.20;2278.40;;;;;;5075749;28;20127;-80
2024/01/19 08:05:34;;;;;;;82.30;57.13;;;282.00;2278.40;;;;;;5090431;28;20028;-79
2024/01/19 08:08:00;;;;;;;48.58;43.22;;;281.70;2278.40;;;;;;5091118;28;20047;-80
2024/01/19 08:10:26;;;;;;;73.00;66.25;;;281.70;2278.40;;;;;;5080543;28;20020;-79
2024/01/19 08:12:52;;;;;;;16.02;12.70;;;256.90;2252.80;;;;;;5071621;28;20499;-76
2024/01/19 08:15:18;;;;;;;17.98;12.98;;;256.80;2252.80;;;;;;5083260;28;20108;-80
2024/01/19 08:17:43;;;;;;;24.25;17.73;;;256.80;2252.80;;;;;;5073621;28;20013;-78
2024/01/19 08:20:12;;;;;;;14.23;11.52;;;256.60;2252.80;;;;;;5075322;28;20035;-79
2024/01/19 08:22:38;;;;;;;17.77;13.63;;;256.50;2252.80;;;;;;5089562;28;20584;-79
2024/01/19 08:25:04;;;;;;;16.67;12.30;;;256.60;2252.80;;;;;;5089145;28;20111;-80
2024/01/19 08:27:30;;;;;;;27.00;22.05;;;256.50;2252.80;;;;;;5078313;28;20032;-77
2024/01/19 08:29:56;;;;;;;14.90;11.65;;;256.50;2252.80;;;;;;5082929;28;20028;-79
2024/01/19 08:32:25;;;;;;;23.58;18.58;;;256.70;2252.80;;;;;;5086739;28;20024;-76
2024/01/19 08:34:50;;;;;;;16.60;13.75;;;256.60;2252.80;;;;;;5091782;28;20088;-79
2024/01/19 08:37:17;;;;;;;23.02;19.45;;;256.70;2252.80;;;;;;5087277;28;20445;-79
2024/01/19 08:39:44;;;;;;;18.58;12.52;;;256.50;2252.80;;;;;;5091508;28;20032;-78
2024/01/19 08:42:10;;;;;;;18.75;16.20;;;256.70;2252.80;;;;;;5084084;28;20052;-78
2024/01/19 08:44:36;;;;;;;25.40;22.60;;;256.60;2252.80;;;;;;5090969;28;20509;-79
2024/01/19 08:47:02;;;;;;;22.92;15.55;;;256.90;2252.80;;;;;;5078308;28;20016;-73
2024/01/19 08:49:28;;;;;;;17.95;12.27;;;256.70;2252.80;;;;;;5077484;28;20549;-78
2024/01/19 08:51:53;;;;;;;27.02;19.20;;;256.80;2252.80;;;;;;5070986;28;20027;-77
2024/01/19 08:54:19;;;;;;;17.73;14.25;;;256.70;2252.80;;;;;;5075194;28;20020;-78
2024/01/19 08:56:45;;;;;;;23.42;17.05;;;256.50;2252.80;;;;;;5091306;28;20020;-77
2024/01/19 08:59:13;;;;;;;21.33;17.30;;;256.40;2252.80;;;;;;5077537;28;20027;-74
2024/01/19 09:01:39;;;;;;;21.55;17.45;;;256.40;2252.80;;;;;;5091180;28;20095;-72
2024/01/19 09:04:05;;;;;;;24.67;20.63;;;256.30;2252.80;;;;;;5090590;28;20434;-77
2024/01/19 09:06:31;;;;;;;36.60;27.05;;;256.40;2252.80;;;;;;5090912;28;20020;-75
2024/01/19 09:09:03;;;;;;;45.83;32.78;;;256.30;2252.80;;;;;;5072851;28;20040;-78
2024/01/19 09:11:32;;;;;;;36.72;28.33;;;256.30;2252.80;;;;;;5083354;28;20020;-77
2024/01/19 09:13:57;;;;;;;39.97;29.23;;;256.20;2252.80;;;;;;5090944;28;20035;-77
2024/01/19 09:16:23;;;;;;;38.67;28.88;;;256.20;2252.80;;;;;;5078013;28;20021;-75
2024/01/19 09:18:49;;;;;;;24.02;17.42;;;256.10;2252.80;;;;;;5076002;28;20031;-79
2024/01/19 09:21:18;;;;;;;37.90;24.48;;;256.00;2252.80;;;;;;5078196;28;20025;-77
2024/01/19 09:23:44;;;;;;;115.88;55.33;;;256.00;2252.80;;;;;;5076342;28;20028;-78
2024/01/19 09:26:19;;;;;;;42.50;28.92;;;256.00;2252.80;;;;;;5091236;28;20020;-78
2024/01/19 09:28:45;;;;;;;43.78;28.63;;;231.30;2252.80;;;;;;5077789;28;20115;-80
2024/01/19 09:31:11;;;;;;;32.70;21.10;;;231.10;2252.80;;;;;;5088686;28;20426;-78
2024/01/19 09:33:37;;;;;;;49.03;30.05;;;231.00;2252.80;;;;;;5077242;28;20427;-77
2024/01/19 09:36:03;;;;;;;39.60;24.48;;;231.00;2252.80;;;;;;5080052;28;20063;-74
2024/01/19 09:38:29;;;;;;;49.13;30.20;;;230.90;2252.80;;;;;;5073544;28;20111;-79
2024/01/19 09:41:17;;;;;;;32.97;21.70;;;230.90;2252.80;;;;;;5082981;28;20434;-75
2024/01/19 09:43:47;;;;;;;45.78;29.27;;;230.70;2252.80;;;;;;5090461;28;20032;-77
2024/01/19 09:46:27;;;;;;;22.08;13.48;;;230.60;2252.80;;;;;;5076686;28;20024;-78
2024/01/19 09:49:25;;;;;;;21.73;14.68;;;230.50;2252.80;;;;;;5090018;28;20354;-77
2024/01/19 09:51:53;;;;;;;27.40;17.23;;;205.70;2252.80;;;;;;5077263;28;20024;-77
2024/01/19 09:54:32;;;;;;;33.22;21.98;;;205.60;2252.80;;;;;;5090128;28;20099;-78
2024/01/19 09:57:02;;;;;;;22.58;14.73;;;205.60;2252.80;;;;;;5077639;28;20027;-74
2024/01/19 09:59:33;;;;;;;31.60;19.73;;;205.30;2252.80;;;;;;5076177;28;20513;-77
2024/01/19 10:02:00;;;;;;;22.58;14.95;;;205.20;2252.80;;;;;;5090135;28;20028;-76
2024/01/19 10:04:27;;;;;;;26.73;18.10;;;205.20;2252.80;;;;;;5089455;28;20071;-76
2024/01/19 10:06:54;;;;;;;38.58;24.52;;;205.20;2252.80;;;;;;5089748;28;20815;-77
2024/01/19 10:09:23;;;;;;;45.78;29.95;;;205.20;2252.80;;;;;;5089728;28;20036;-76
2024/01/19 10:11:54;;;;;;;39.92;25.98;;;205.20;2252.80;;;;;;5089951;28;20103;-79
2024/01/19 10:14:22;;;;;;;42.58;26.80;;;205.20;2252.80;;;;;;5089594;28;20146;-74
2024/01/19 10:16:52;;;;;;;33.45;24.00;;;205.00;2252.80;;;;;;5073285;28;20025;-78
2024/01/19 10:19:21;;;;;;;22.70;14.18;;;180.10;2252.80;;;;;;5079329;28;20472;-77
2024/01/19 10:21:49;;;;;;;21.67;15.80;;;179.80;2252.80;;;;;;5075701;28;20074;-77
2024/01/19 10:24:19;;;;;;;28.50;19.77;;;179.80;2252.80;;;;;;5087686;28;20428;-77
2024/01/19 10:26:59;;;;;;;29.52;18.73;;;179.80;2252.80;;;;;;5089362;28;20077;-79
2024/01/19 10:29:25;;;;;;;36.97;21.92;;;179.70;2252.80;;;;;;5089582;28;20097;-78
2024/01/19 10:31:55;;;;;;;24.65;16.15;;;179.70;2252.80;;;;;;5089372;28;20440;-78
2024/01/19 10:34:27;;;;;;;17.67;13.18;;;179.60;2252.80;;;;;;5089150;28;20355;-79
2024/01/19 10:36:53;;;;;;;22.20;15.17;;;179.70;2252.80;;;;;;5077038;28;20024;-72
2024/01/19 10:39:31;;;;;;;21.40;14.73;;;179.60;2252.80;;;;;;5075007;28;20425;-76
2024/01/19 10:42:05;;;;;;;18.08;13.13;;;179.60;2252.80;;;;;;5078608;28;20020;-77
2024/01/19 10:44:32;;;;;;;14.30;11.95;;;179.70;2252.80;;;;;;5076331;28;20035;-72
2024/01/19 10:46:58;;;;;;;13.00;9.05;;;179.40;2252.80;;;;;;5090227;28;20035;-80
2024/01/19 10:49:24;;;;;;;14.77;9.93;;;179.40;2252.80;;;;;;5071831;28;20024;-74
2024/01/19 10:51:50;;;;;;;11.45;8.15;;;179.20;2252.80;;;;;;5079666;28;20020;-75
2024/01/19 10:54:27;;;;;;;13.27;8.30;;;179.30;2252.80;;;;;;5089055;28;20415;-78
2024/01/19 10:57:08;;;;;;;15.30;9.13;;;179.20;2252.80;;;;;;5088924;28;20524;-78
2024/01/19 10:59:34;;;;;;;9.27;6.25;;;154.40;2252.80;;;;;;5075825;28;20374;-78
2024/01/19 11:02:02;;;;;;;10.55;7.40;;;154.30;2252.80;;;;;;5076235;28;20025;-77
2024/01/19 11:04:28;;;;;;;10.90;8.10;;;154.40;2252.80;;;;;;5088429;28;20044;-78
2024/01/19 11:06:55;;;;;;;14.77;8.73;;;179.20;2252.80;;;;;;5088980;28;20535;-74
2024/01/19 11:09:21;;;;;;;12.48;8.32;;;179.20;2252.80;;;;;;5084137;28;20445;-78
2024/01/19 11:11:50;;;;;;;11.70;8.32;;;179.20;2252.80;;;;;;5082175;28;20052;-71
2024/01/19 11:14:20;;;;;;;7.03;4.97;;;154.50;2252.80;;;;;;5076088;28;20084;-72
2024/01/19 11:16:48;;;;;;;10.50;7.40;;;154.30;2252.80;;;;;;5089013;28;20063;-72
2024/01/19 11:19:16;;;;;;;7.18;4.70;;;154.30;2252.80;;;;;;5088599;28;20481;-75
2024/01/19 11:21:44;;;;;;;8.73;6.10;;;154.40;2252.80;;;;;;5075013;28;20553;-75
2024/01/19 11:24:12;;;;;;;5.85;4.30;;;154.50;2252.80;;;;;;5088941;28;20016;-76
2024/01/19 11:26:46;;;;;;;7.20;4.90;;;153.80;2252.80;;;;;;5088718;28;20024;-76
2024/01/19 11:29:25;;;;;;;6.47;4.90;;;154.20;2252.80;;;;;;5078341;28;20028;-73
2024/01/19 11:31:51;;;;;;;6.78;4.65;;;154.00;2252.80;;;;;;5087444;28;20031;-76
2024/01/19 11:34:44;;;;;;;5.60;4.38;;;153.90;2252.80;;;;;;5088794;28;20042;-73
2024/01/19 11:37:46;;;;;;;6.80;4.45;;;153.60;2252.80;;;;;;5080228;28;20373;-75
2024/01/19 11:40:24;;;;;;;6.43;3.40;;;153.70;2252.80;;;;;;5092491;28;20028;-73
2024/01/19 11:42:50;;;;;;;4.40;2.90;;;153.70;2252.80;;;;;;5092721;28;20027;-78
2024/01/19 11:45:40;;;;;;;3.50;2.13;;;154.00;2252.80;;;;;;5082977;28;20570;-72
2024/01/19 11:48:07;;;;;;;16.85;9.18;;;153.80;2252.80;;;;;;5071989;28;20385;-71
2024/01/19 11:50:44;;;;;;;5.72;3.40;;;153.60;2252.80;;;;;;5084759;28;20020;-77
2024/01/19 11:53:11;;;;;;;12.30;7.22;;;128.80;2252.80;;;;;;5092478;28;20023;-74
2024/01/19 11:55:38;;;;;;;6.32;3.55;;;153.70;2252.80;;;;;;5090705;28;20020;-74
2024/01/19 11:58:26;;;;;;;31.17;23.33;;;154.00;2252.80;;;;;;5072214;28;20025;-77
2024/01/19 12:00:54;;;;;;;5.35;3.05;;;153.80;2252.80;;;;;;5090301;28;20466;-77
2024/01/19 12:03:20;;;;;;;25.77;18.48;;;153.90;2252.80;;;;;;5091625;28;20044;-72